createdAt,value
2022-11-04T00:00:57.284Z,98.13
2022-11-04T00:01:57.048Z,98.24
2022-11-04T00:02:56.963Z,98.13
2022-11-04T00:03:56.947Z,98.33
2022-11-04T00:04:56.958Z,98.44
2022-11-04T00:05:56.990Z,98.08
2022-11-04T00:06:56.933Z,97.78
2022-11-04T00:07:56.916Z,97.98
2022-11-04T00:08:56.904Z,97.78
2022-11-04T00:09:56.911Z,98.19
2022-11-04T00:10:56.938Z,98.39
2022-11-04T00:11:56.904Z,98.19
2022-11-04T00:12:56.882Z,97.67
2022-11-04T00:13:56.884Z,97.67
2022-11-04T00:14:56.866Z,97.67
2022-11-04T00:15:56.880Z,97.37
2022-11-04T00:16:56.852Z,97.78
2022-11-04T00:17:56.846Z,97.57
2022-11-04T00:18:56.839Z,97.67
2022-11-04T00:19:56.849Z,97.47
2022-11-04T00:20:56.846Z,97.57
2022-11-04T00:21:56.812Z,97.57
2022-11-04T00:22:56.804Z,97.74
2022-11-04T00:23:56.799Z,97.67
2022-11-04T00:24:56.793Z,97.67
2022-11-04T00:25:56.810Z,97.33
2022-11-04T00:26:56.802Z,98.08
2022-11-04T00:27:56.770Z,98.14
2022-11-04T00:28:56.761Z,97.94
2022-11-04T00:29:56.749Z,97.94
2022-11-04T00:30:56.769Z,97.74
2022-11-04T00:31:56.753Z,98.04
2022-11-04T00:32:56.733Z,98.45
2022-11-04T00:33:56.727Z,98.45
2022-11-04T00:34:56.709Z,98.45
2022-11-04T00:35:56.742Z,98.04
2022-11-04T00:36:56.707Z,98.08
2022-11-04T00:37:56.690Z,98.49
2022-11-04T00:38:56.694Z,98.49
2022-11-04T00:39:56.671Z,98.60
2022-11-04T00:40:56.672Z,98.65
2022-11-04T00:41:56.783Z,98.75
2022-11-04T00:42:56.642Z,98.86
2022-11-04T00:43:56.641Z,98.49
2022-11-04T00:44:56.641Z,98.35
2022-11-04T00:45:56.629Z,98.96
2022-11-04T00:46:56.648Z,98.96
2022-11-04T00:47:56.622Z,99.06
2022-11-04T00:48:56.619Z,99.01
2022-11-04T00:49:56.605Z,99.11
2022-11-04T00:50:56.637Z,99.11
2022-11-04T00:51:56.609Z,98.96
2022-11-04T00:52:56.583Z,98.96
2022-11-04T00:53:56.571Z,98.96
2022-11-04T00:54:56.585Z,99.27
2022-11-04T00:55:56.559Z,98.86
2022-11-04T00:56:56.586Z,98.86
2022-11-04T00:57:56.541Z,98.96
2022-11-04T00:58:56.536Z,98.65
2022-11-04T00:59:56.531Z,98.86
2022-11-04T01:00:56.623Z,99.37
2022-11-04T01:01:56.702Z,98.55
2022-11-04T01:02:56.502Z,99.16
2022-11-04T01:03:56.504Z,99.37
2022-11-04T01:04:56.493Z,99.27
2022-11-04T01:05:56.482Z,98.86
2022-11-04T01:06:56.497Z,99.27
2022-11-04T01:07:57.480Z,98.61
2022-11-04T01:08:56.465Z,99.16
2022-11-04T01:09:56.448Z,99.16
2022-11-04T01:10:56.466Z,99.16
2022-11-04T01:11:56.471Z,99.11
2022-11-04T01:12:56.437Z,99.22
2022-11-04T01:13:56.441Z,98.75
2022-11-04T01:14:56.427Z,98.55
2022-11-04T01:15:56.418Z,99.02
2022-11-04T01:16:56.441Z,98.86
2022-11-04T01:17:56.394Z,99.22
2022-11-04T01:18:56.392Z,98.71
2022-11-04T01:19:56.407Z,98.71
2022-11-04T01:20:56.369Z,98.81
2022-11-04T01:21:56.389Z,98.91
2022-11-04T01:22:56.361Z,98.96
2022-11-04T01:23:56.350Z,98.96
2022-11-04T01:24:56.336Z,98.91
2022-11-04T01:25:56.333Z,98.71
2022-11-04T01:26:56.408Z,98.20
2022-11-04T01:27:56.317Z,98.40
2022-11-04T01:28:56.312Z,98.45
2022-11-04T01:29:56.306Z,98.40
2022-11-04T01:30:56.291Z,98.50
2022-11-04T01:31:56.313Z,98.30
2022-11-04T01:32:56.274Z,98.20
2022-11-04T01:33:56.260Z,98.30
2022-11-04T01:34:57.249Z,97.89
2022-11-04T01:35:56.252Z,97.89
2022-11-04T01:36:56.272Z,98.20
2022-11-04T01:37:56.234Z,97.99
2022-11-04T01:38:56.226Z,98.24
2022-11-04T01:39:56.222Z,98.20
2022-11-04T01:40:56.281Z,98.10
2022-11-04T01:41:56.279Z,97.99
2022-11-04T01:42:56.197Z,98.20
2022-11-04T01:43:56.183Z,98.30
2022-11-04T01:44:56.180Z,98.10
2022-11-04T01:45:56.177Z,98.30
2022-11-04T01:46:56.192Z,98.61
2022-11-04T01:47:56.160Z,97.69
2022-11-04T01:48:56.159Z,97.79
2022-11-04T01:49:56.138Z,97.89
2022-11-04T01:50:56.126Z,97.49
2022-11-04T01:51:56.117Z,97.99
2022-11-04T01:52:56.139Z,97.79
2022-11-04T01:53:56.110Z,97.79
2022-11-04T01:54:56.105Z,97.49
2022-11-04T01:55:56.101Z,97.49
2022-11-04T01:56:56.084Z,97.38
2022-11-04T01:57:56.122Z,97.69
2022-11-04T01:58:56.073Z,97.58
2022-11-04T01:59:56.062Z,97.69
2022-11-04T02:00:56.140Z,97.38
2022-11-04T02:01:56.137Z,96.36
2022-11-04T02:02:56.062Z,96.46
2022-11-04T02:03:56.030Z,96.77
2022-11-04T02:04:56.016Z,96.67
2022-11-04T02:05:56.019Z,96.36
2022-11-04T02:06:56.000Z,96.46
2022-11-04T02:07:56.025Z,96.67
2022-11-04T02:08:56.073Z,96.46
2022-11-04T02:09:55.981Z,96.05
2022-11-04T02:10:55.975Z,96.26
2022-11-04T02:11:55.966Z,96.26
2022-11-04T02:12:55.979Z,96.05
2022-11-04T02:13:55.971Z,95.95
2022-11-04T02:14:55.939Z,95.64
2022-11-04T02:15:55.940Z,95.03
2022-11-04T02:16:55.925Z,95.39
2022-11-04T02:17:55.946Z,94.58
2022-11-04T02:18:55.912Z,94.68
2022-11-04T02:19:55.908Z,95.09
2022-11-04T02:20:55.905Z,95.03
2022-11-04T02:21:55.894Z,94.89
2022-11-04T02:22:55.933Z,95.23
2022-11-04T02:23:55.872Z,94.98
2022-11-04T02:24:55.865Z,95.19
2022-11-04T02:25:55.856Z,95.09
2022-11-04T02:26:55.846Z,94.89
2022-11-04T02:27:55.866Z,95.09
2022-11-04T02:28:55.828Z,95.09
2022-11-04T02:29:55.817Z,94.82
2022-11-04T02:30:55.816Z,94.93
2022-11-04T02:31:55.802Z,95.09
2022-11-04T02:32:55.822Z,95.13
2022-11-04T02:33:55.785Z,95.03
2022-11-04T02:34:55.825Z,95.13
2022-11-04T02:35:55.774Z,95.29
2022-11-04T02:36:55.780Z,94.93
2022-11-04T02:37:55.807Z,94.89
2022-11-04T02:38:55.747Z,94.52
2022-11-04T02:39:55.746Z,94.01
2022-11-04T02:40:55.746Z,94.11
2022-11-04T02:41:55.727Z,94.17
2022-11-04T02:42:55.753Z,94.17
2022-11-04T02:43:55.719Z,94.11
2022-11-04T02:44:55.709Z,93.60
2022-11-04T02:45:55.699Z,93.66
2022-11-04T02:46:55.694Z,93.91
2022-11-04T02:47:55.713Z,93.80
2022-11-04T02:48:55.691Z,94.01
2022-11-04T02:49:55.667Z,94.52
2022-11-04T02:50:55.669Z,94.32
2022-11-04T02:51:55.655Z,93.96
2022-11-04T02:52:55.675Z,93.60
2022-11-04T02:53:55.634Z,94.01
2022-11-04T02:54:55.634Z,93.70
2022-11-04T02:55:55.625Z,93.91
2022-11-04T02:56:55.620Z,93.80
2022-11-04T02:57:55.635Z,93.40
2022-11-04T02:58:55.601Z,93.29
2022-11-04T02:59:55.594Z,93.40
2022-11-04T03:00:55.649Z,92.47
2022-11-04T03:01:55.669Z,92.68
2022-11-04T03:02:55.594Z,93.50
2022-11-04T03:03:55.558Z,93.50
2022-11-04T03:04:55.558Z,93.80
2022-11-04T03:05:55.547Z,93.91
2022-11-04T03:06:55.545Z,93.40
2022-11-04T03:07:55.555Z,93.33
2022-11-04T03:08:55.524Z,92.32
2022-11-04T03:09:55.525Z,92.83
2022-11-04T03:10:55.515Z,92.37
2022-11-04T03:11:55.503Z,93.50
2022-11-04T03:12:55.523Z,92.42
2022-11-04T03:13:55.492Z,92.42
2022-11-04T03:15:10.202Z,92.78
2022-11-04T03:15:55.477Z,93.40
2022-11-04T03:16:55.473Z,93.50
2022-11-04T03:17:55.483Z,93.85
2022-11-04T03:18:55.450Z,93.85
2022-11-04T03:19:55.456Z,93.85
2022-11-04T03:20:55.429Z,93.95
2022-11-04T03:21:55.426Z,93.44
2022-11-04T03:22:55.443Z,93.54
2022-11-04T03:23:55.417Z,92.72
2022-11-04T03:24:55.444Z,92.93
2022-11-04T03:25:55.398Z,92.62
2022-11-04T03:26:55.394Z,92.72
2022-11-04T03:27:55.404Z,92.32
2022-11-04T03:28:55.367Z,91.80
2022-11-04T03:29:55.365Z,91.19
2022-11-04T03:30:55.367Z,91.50
2022-11-04T03:31:55.346Z,91.29
2022-11-04T03:32:55.367Z,92.11
2022-11-04T03:33:55.354Z,91.60
2022-11-04T03:34:55.334Z,92.11
2022-11-04T03:35:55.321Z,91.70
2022-11-04T03:36:55.308Z,91.91
2022-11-04T03:37:55.330Z,91.60
2022-11-04T03:38:55.292Z,92.21
2022-11-04T03:39:55.294Z,91.60
2022-11-04T03:40:55.279Z,91.64
2022-11-04T03:41:55.276Z,91.91
2022-11-04T03:42:55.301Z,90.00
2022-11-04T03:43:55.264Z,90.52
2022-11-04T03:44:55.258Z,90.78
2022-11-04T03:45:55.242Z,90.47
2022-11-04T03:46:55.238Z,90.68
2022-11-04T03:47:55.253Z,89.90
2022-11-04T03:48:55.222Z,89.80
2022-11-04T03:49:55.220Z,89.65
2022-11-04T03:50:55.204Z,89.80
2022-11-04T03:51:55.212Z,89.09
2022-11-04T03:52:55.220Z,88.57
2022-11-04T03:53:55.190Z,87.45
2022-11-04T03:54:55.176Z,87.65
2022-11-04T03:55:55.164Z,87.96
2022-11-04T03:56:55.148Z,88.47
2022-11-04T03:57:56.179Z,88.47
2022-11-04T03:58:55.159Z,88.17
2022-11-04T03:59:55.143Z,88.37
2022-11-04T04:00:55.174Z,87.96
2022-11-04T04:01:55.220Z,88.47
2022-11-04T04:02:55.138Z,88.26
2022-11-04T04:03:55.104Z,88.06
2022-11-04T04:04:55.105Z,88.06
2022-11-04T04:05:55.083Z,88.47
2022-11-04T04:06:55.084Z,87.76
2022-11-04T04:07:55.096Z,88.06
2022-11-04T04:08:55.070Z,88.10
2022-11-04T04:09:55.053Z,88.37
2022-11-04T04:10:55.049Z,88.10
2022-11-04T04:11:55.041Z,88.31
2022-11-04T04:12:55.076Z,88.82
2022-11-04T04:13:55.022Z,88.00
2022-11-04T04:14:55.015Z,88.41
2022-11-04T04:15:55.008Z,88.04
2022-11-04T04:16:55.028Z,88.10
2022-11-04T04:17:55.030Z,88.41
2022-11-04T04:18:57.607Z,88.31
2022-11-04T04:19:54.973Z,87.90
2022-11-04T04:20:54.977Z,88.00
2022-11-04T04:21:55.004Z,88.00
2022-11-04T04:22:54.950Z,88.00
2022-11-04T04:23:54.989Z,88.10
2022-11-04T04:24:54.939Z,88.35
2022-11-04T04:25:54.926Z,87.94
2022-11-04T04:26:54.927Z,88.04
2022-11-04T04:27:54.923Z,87.79
2022-11-04T04:28:54.940Z,88.14
2022-11-04T04:29:54.906Z,87.63
2022-11-04T04:31:00.028Z,87.53
2022-11-04T04:31:56.886Z,87.63
2022-11-04T04:32:54.864Z,87.94
2022-11-04T04:33:55.895Z,87.53
2022-11-04T04:34:54.856Z,88.24
2022-11-04T04:35:54.854Z,88.14
2022-11-04T04:36:54.848Z,87.73
2022-11-04T04:37:54.835Z,87.53
2022-11-04T04:38:54.850Z,88.24
2022-11-04T04:39:54.823Z,88.24
2022-11-04T04:40:54.867Z,87.53
2022-11-04T04:41:54.807Z,88.14
2022-11-04T04:42:54.802Z,88.39
2022-11-04T04:43:54.820Z,88.14
2022-11-04T04:44:54.790Z,88.39
2022-11-04T04:45:54.784Z,88.65
2022-11-04T04:46:54.764Z,88.90
2022-11-04T04:47:54.762Z,88.80
2022-11-04T04:48:54.800Z,89.06
2022-11-04T04:49:54.744Z,89.31
2022-11-04T04:50:54.741Z,89.42
2022-11-04T04:51:54.744Z,88.80
2022-11-04T04:52:54.714Z,89.31
2022-11-04T04:53:54.747Z,88.90
2022-11-04T04:54:54.708Z,88.39
2022-11-04T04:55:54.707Z,88.49
2022-11-04T04:56:54.692Z,88.70
2022-11-04T04:57:54.681Z,88.59
2022-11-04T04:58:54.703Z,88.59
2022-11-04T04:59:54.663Z,88.59
2022-11-04T05:00:54.732Z,88.90
2022-11-04T05:01:54.723Z,89.31
2022-11-04T05:02:54.647Z,89.21
2022-11-04T05:03:54.662Z,88.90
2022-11-04T05:04:54.621Z,89.11
2022-11-04T05:05:57.861Z,89.31
2022-11-04T05:06:54.614Z,89.31
2022-11-04T05:07:54.602Z,89.21
2022-11-04T05:08:54.622Z,89.42
2022-11-04T05:09:54.591Z,89.42
2022-11-04T05:10:54.583Z,89.31
2022-11-04T05:11:54.612Z,89.51
2022-11-04T05:12:54.611Z,89.21
2022-11-04T05:13:54.567Z,89.31
2022-11-04T05:14:54.581Z,89.31
2022-11-04T05:15:54.553Z,89.51
2022-11-04T05:16:54.538Z,89.87
2022-11-04T05:17:54.540Z,89.83
2022-11-04T05:18:54.528Z,89.51
2022-11-04T05:19:54.541Z,89.42
2022-11-04T05:20:54.550Z,89.51
2022-11-04T05:21:54.505Z,89.42
2022-11-04T05:22:54.496Z,89.42
2022-11-04T05:23:54.495Z,89.42
2022-11-04T05:24:54.501Z,89.42
2022-11-04T05:25:54.466Z,89.62
2022-11-04T05:26:54.465Z,89.72
2022-11-04T05:27:54.454Z,90.13
2022-11-04T05:28:54.449Z,89.83
2022-11-04T05:29:54.475Z,90.37
2022-11-04T05:30:54.435Z,90.95
2022-11-04T05:31:54.436Z,90.95
2022-11-04T05:32:57.316Z,91.09
2022-11-04T05:33:55.413Z,91.40
2022-11-04T05:34:54.428Z,91.30
2022-11-04T05:35:54.403Z,92.22
2022-11-04T05:36:54.393Z,92.43
2022-11-04T05:37:54.379Z,92.12
2022-11-04T05:38:54.381Z,91.71
2022-11-04T05:39:54.395Z,92.53
2022-11-04T05:40:54.362Z,92.32
2022-11-04T05:41:54.356Z,92.32
2022-11-04T05:42:54.363Z,92.74
2022-11-04T05:43:54.348Z,92.63
2022-11-04T05:44:54.362Z,92.74
2022-11-04T05:45:54.335Z,92.63
2022-11-04T05:46:54.317Z,92.53
2022-11-04T05:47:54.316Z,93.04
2022-11-04T05:48:54.301Z,92.74
2022-11-04T05:49:54.324Z,92.83
2022-11-04T05:50:54.342Z,93.15
2022-11-04T05:51:54.289Z,93.04
2022-11-04T05:52:54.299Z,92.74
2022-11-04T05:53:54.295Z,92.74
2022-11-04T05:54:54.368Z,92.83
2022-11-04T05:55:54.252Z,92.47
2022-11-04T05:56:54.252Z,91.96
2022-11-04T05:57:54.238Z,92.06
2022-11-04T05:58:54.236Z,91.65
2022-11-04T05:59:54.257Z,91.30
2022-11-04T06:00:54.221Z,90.83
2022-11-04T06:01:54.335Z,91.14
2022-11-04T06:02:54.248Z,90.42
2022-11-04T06:03:54.198Z,90.42
2022-11-04T06:04:54.211Z,90.93
2022-11-04T06:05:54.186Z,90.73
2022-11-04T06:06:54.182Z,90.62
2022-11-04T06:07:54.162Z,91.03
2022-11-04T06:08:54.157Z,90.93
2022-11-04T06:09:55.176Z,91.14
2022-11-04T06:10:55.120Z,91.44
2022-11-04T06:11:54.132Z,91.24
2022-11-04T06:12:54.150Z,90.83
2022-11-04T06:13:54.124Z,90.83
2022-11-04T06:14:54.192Z,91.14
2022-11-04T06:15:54.122Z,91.08
2022-11-04T06:16:54.103Z,90.83
2022-11-04T06:17:54.092Z,90.93
2022-11-04T06:18:54.090Z,90.97
2022-11-04T06:19:54.102Z,90.83
2022-11-04T06:20:54.070Z,90.77
2022-11-04T06:21:54.063Z,90.97
2022-11-04T06:22:54.071Z,91.28
2022-11-04T06:23:54.047Z,91.38
2022-11-04T06:24:54.084Z,91.38
2022-11-04T06:25:54.047Z,91.38
2022-11-04T06:26:54.030Z,91.49
2022-11-04T06:27:54.015Z,91.18
2022-11-04T06:28:54.017Z,91.80
2022-11-04T06:29:54.033Z,92.51
2022-11-04T06:30:54.021Z,92.61
2022-11-04T06:31:53.987Z,92.41
2022-11-04T06:32:53.982Z,92.51
2022-11-04T06:33:53.975Z,91.80
2022-11-04T06:34:54.001Z,92.10
2022-11-04T06:35:53.956Z,91.90
2022-11-04T06:36:53.961Z,92.61
2022-11-04T06:37:53.943Z,92.66
2022-11-04T06:38:55.584Z,92.61
2022-11-04T06:39:53.972Z,92.61
2022-11-04T06:40:53.983Z,92.61
2022-11-04T06:41:55.520Z,92.51
2022-11-04T06:42:53.914Z,92.82
2022-11-04T06:43:53.896Z,92.35
2022-11-04T06:44:53.890Z,92.46
2022-11-04T06:45:53.912Z,93.07
2022-11-04T06:46:53.880Z,92.46
2022-11-04T06:47:53.863Z,92.35
2022-11-04T06:48:53.855Z,93.17
2022-11-04T06:49:53.854Z,93.38
2022-11-04T06:50:53.872Z,92.97
2022-11-04T06:51:53.860Z,92.76
2022-11-04T06:52:53.827Z,93.17
2022-11-04T06:53:53.822Z,93.68
2022-11-04T06:54:53.815Z,93.79
2022-11-04T06:55:53.829Z,93.79
2022-11-04T06:56:53.792Z,93.89
2022-11-04T06:57:53.793Z,94.34
2022-11-04T06:58:53.932Z,94.20
2022-11-04T06:59:53.773Z,94.30
2022-11-04T07:00:53.896Z,94.34
2022-11-04T07:01:53.879Z,94.20
2022-11-04T07:02:53.807Z,93.99
2022-11-04T07:03:53.747Z,93.93
2022-11-04T07:04:53.793Z,93.89
2022-11-04T07:05:53.754Z,94.14
2022-11-04T07:06:53.723Z,94.10
2022-11-04T07:07:53.713Z,94.14
2022-11-04T07:08:53.705Z,93.99
2022-11-04T07:09:53.691Z,94.20
2022-11-04T07:10:53.708Z,94.45
2022-11-04T07:11:53.680Z,94.51
2022-11-04T07:12:53.670Z,94.40
2022-11-04T07:13:53.670Z,94.65
2022-11-04T07:14:53.682Z,94.51
2022-11-04T07:15:53.674Z,94.71
2022-11-04T07:16:53.641Z,94.61
2022-11-04T07:17:53.645Z,94.61
2022-11-04T07:18:53.623Z,94.40
2022-11-04T07:19:53.612Z,94.85
2022-11-04T07:20:53.634Z,94.81
2022-11-04T07:21:53.597Z,94.96
2022-11-04T07:22:53.587Z,95.12
2022-11-04T07:23:53.874Z,95.37
2022-11-04T07:24:53.574Z,94.85
2022-11-04T07:25:53.595Z,94.92
2022-11-04T07:26:53.593Z,94.81
2022-11-04T07:27:55.529Z,94.92
2022-11-04T07:28:53.548Z,94.51
2022-11-04T07:29:53.542Z,94.61
2022-11-04T07:30:53.560Z,94.61
2022-11-04T07:31:53.527Z,94.61
2022-11-04T07:32:53.512Z,94.55
2022-11-04T07:33:53.512Z,94.51
2022-11-04T07:34:53.498Z,94.61
2022-11-04T07:35:57.194Z,94.20
2022-11-04T07:36:54.569Z,94.20
2022-11-04T07:37:53.468Z,93.99
2022-11-04T07:38:53.464Z,94.30
2022-11-04T07:39:53.456Z,94.71
2022-11-04T07:40:53.474Z,94.30
2022-11-04T07:41:59.142Z,94.51
2022-11-04T07:42:55.434Z,94.51
2022-11-04T07:43:53.417Z,94.61
2022-11-04T07:44:53.412Z,94.51
2022-11-04T07:45:53.436Z,94.51
2022-11-04T07:46:53.406Z,94.51
2022-11-04T07:47:53.398Z,94.51
2022-11-04T07:48:53.386Z,94.51
2022-11-04T07:49:53.441Z,94.51
2022-11-04T07:50:53.805Z,94.26
2022-11-04T07:51:53.415Z,94.20
2022-11-04T07:52:53.372Z,93.79
2022-11-04T07:53:53.356Z,94.30
2022-11-04T07:54:53.335Z,94.10
2022-11-04T07:55:53.364Z,94.20
2022-11-04T07:56:53.328Z,94.85
2022-11-04T07:57:53.356Z,94.71
2022-11-04T07:58:53.305Z,94.92
2022-11-04T07:59:53.296Z,94.96
2022-11-04T08:00:53.320Z,94.71
2022-11-04T08:01:53.405Z,94.71
2022-11-04T08:02:53.340Z,94.30
2022-11-04T08:03:53.269Z,94.40
2022-11-04T08:04:53.266Z,94.30
2022-11-04T08:05:53.289Z,94.05
2022-11-04T08:06:53.248Z,94.15
2022-11-04T08:07:53.243Z,93.64
2022-11-04T08:08:53.303Z,93.64
2022-11-04T08:09:53.218Z,93.64
2022-11-04T08:10:53.241Z,93.85
2022-11-04T08:11:53.233Z,93.64
2022-11-04T08:12:53.202Z,94.05
2022-11-04T08:13:53.208Z,93.70
2022-11-04T08:14:53.185Z,93.90
2022-11-04T08:15:53.213Z,93.90
2022-11-04T08:16:53.171Z,93.19
2022-11-04T08:17:53.166Z,93.19
2022-11-04T08:18:53.169Z,92.78
2022-11-04T08:19:53.156Z,92.78
2022-11-04T08:20:53.187Z,92.78
2022-11-04T08:21:53.131Z,92.94
2022-11-04T08:22:53.122Z,92.12
2022-11-04T08:23:53.121Z,92.22
2022-11-04T08:24:53.109Z,92.53
2022-11-04T08:25:53.130Z,92.43
2022-11-04T08:26:53.099Z,92.43
2022-11-04T08:27:58.080Z,92.36
2022-11-04T08:28:55.087Z,92.74
2022-11-04T08:29:53.071Z,92.94
2022-11-04T08:30:53.096Z,92.83
2022-11-04T08:31:53.059Z,91.71
2022-11-04T08:32:53.065Z,91.82
2022-11-04T08:33:53.042Z,92.22
2022-11-04T08:34:53.037Z,91.67
2022-11-04T08:35:53.064Z,90.95
2022-11-04T08:36:53.025Z,90.58
2022-11-04T08:37:53.012Z,90.99
2022-11-04T08:38:53.020Z,90.84
2022-11-04T08:39:53.008Z,90.95
2022-11-04T08:40:58.615Z,90.13
2022-11-04T08:41:54.986Z,90.23
2022-11-04T08:42:52.987Z,89.89
2022-11-04T08:43:52.970Z,90.19
2022-11-04T08:44:52.965Z,90.13
2022-11-04T08:45:52.976Z,89.92
2022-11-04T08:46:52.955Z,90.03
2022-11-04T08:47:52.947Z,90.19
2022-11-04T08:48:52.928Z,89.62
2022-11-04T08:49:52.929Z,89.83
2022-11-04T08:50:52.941Z,88.76
2022-11-04T08:51:52.914Z,89.31
2022-11-04T08:52:52.904Z,89.83
2022-11-04T08:53:52.897Z,90.07
2022-11-04T08:54:57.160Z,91.09
2022-11-04T08:55:53.909Z,90.54
2022-11-04T08:56:52.881Z,89.92
2022-11-04T08:57:52.866Z,89.98
2022-11-04T08:58:52.861Z,89.58
2022-11-04T08:59:52.841Z,89.58
2022-11-04T09:00:52.875Z,89.78
2022-11-04T09:01:52.867Z,89.33
2022-11-04T09:02:52.827Z,89.68
2022-11-04T09:03:52.865Z,89.94
2022-11-04T09:04:52.809Z,89.33
2022-11-04T09:05:52.844Z,88.26
2022-11-04T09:06:52.796Z,88.26
2022-11-04T09:07:52.795Z,87.96
2022-11-04T09:08:52.779Z,88.02
2022-11-04T09:09:52.776Z,86.96
2022-11-04T09:10:52.790Z,86.29
2022-11-04T09:11:52.756Z,85.42
2022-11-04T09:12:52.749Z,85.12
2022-11-04T09:13:52.802Z,84.81
2022-11-04T09:14:53.740Z,85.22
2022-11-04T09:15:52.762Z,85.22
2022-11-04T09:16:52.722Z,84.50
2022-11-04T09:17:52.716Z,85.12
2022-11-04T09:18:52.721Z,84.30
2022-11-04T09:19:52.698Z,84.20
2022-11-04T09:20:52.716Z,84.57
2022-11-04T09:21:52.681Z,84.36
2022-11-04T09:22:52.672Z,84.16
2022-11-04T09:23:52.668Z,83.95
2022-11-04T09:24:52.681Z,83.44
2022-11-04T09:25:52.824Z,84.26
2022-11-04T09:26:52.647Z,83.95
2022-11-04T09:27:52.631Z,84.06
2022-11-04T09:28:52.633Z,83.20
2022-11-04T09:29:52.727Z,83.30
2022-11-04T09:30:52.644Z,83.30
2022-11-04T09:31:52.602Z,83.04
2022-11-04T09:32:53.079Z,82.32
2022-11-04T09:33:53.605Z,83.18
2022-11-04T09:34:52.582Z,82.97
2022-11-04T09:35:52.600Z,83.28
2022-11-04T09:36:52.564Z,83.79
2022-11-04T09:37:52.548Z,83.38
2022-11-04T09:38:52.549Z,83.07
2022-11-04T09:39:53.968Z,82.97
2022-11-04T09:40:53.558Z,83.59
2022-11-04T09:41:52.528Z,83.48
2022-11-04T09:42:52.521Z,83.79
2022-11-04T09:43:52.512Z,83.89
2022-11-04T09:45:21.122Z,83.38
2022-11-04T09:45:54.652Z,83.69
2022-11-04T09:46:52.505Z,83.59
2022-11-04T09:47:52.480Z,83.65
2022-11-04T09:48:52.473Z,83.95
2022-11-04T09:49:52.466Z,83.18
2022-11-04T09:50:52.482Z,84.00
2022-11-04T09:51:55.203Z,84.09
2022-11-04T09:52:53.445Z,84.06
2022-11-04T09:53:52.439Z,83.34
2022-11-04T09:54:52.426Z,83.75
2022-11-04T09:55:52.461Z,84.06
2022-11-04T09:56:52.408Z,83.34
2022-11-04T09:57:52.517Z,83.61
2022-11-04T09:58:52.387Z,83.00
2022-11-04T09:59:52.380Z,82.79
2022-11-04T10:00:52.426Z,82.28
2022-11-04T10:01:52.672Z,82.53
2022-11-04T10:02:52.384Z,82.89
2022-11-04T10:03:52.365Z,82.93
2022-11-04T10:04:52.343Z,82.83
2022-11-04T10:05:52.364Z,82.22
2022-11-04T10:06:52.447Z,82.63
2022-11-04T10:07:52.319Z,82.73
2022-11-04T10:08:52.314Z,82.69
2022-11-04T10:09:52.325Z,83.00
2022-11-04T10:10:52.347Z,82.59
2022-11-04T10:11:52.291Z,82.49
2022-11-04T10:12:52.281Z,81.73
2022-11-04T10:13:52.272Z,82.49
2022-11-04T10:14:52.262Z,83.10
2022-11-04T10:15:52.284Z,81.63
2022-11-04T10:16:52.251Z,81.73
2022-11-04T10:17:52.315Z,81.63
2022-11-04T10:18:52.235Z,81.98
2022-11-04T10:19:52.225Z,82.08
2022-11-04T10:20:52.280Z,81.73
2022-11-04T10:21:52.217Z,81.73
2022-11-04T10:22:52.211Z,81.67
2022-11-04T10:23:52.195Z,81.98
2022-11-04T10:24:52.204Z,82.28
2022-11-04T10:25:52.214Z,81.77
2022-11-04T10:26:56.024Z,82.24
2022-11-04T10:27:54.166Z,81.53
2022-11-04T10:28:52.176Z,81.46
2022-11-04T10:29:52.145Z,81.73
2022-11-04T10:30:52.145Z,81.73
2022-11-04T10:31:52.162Z,81.80
2022-11-04T10:32:53.602Z,80.98
2022-11-04T10:33:52.179Z,80.57
2022-11-04T10:34:52.109Z,81.29
2022-11-04T10:35:52.105Z,80.94
2022-11-04T10:36:52.121Z,80.84
2022-11-04T10:37:52.091Z,80.74
2022-11-04T10:38:52.081Z,80.29
2022-11-04T10:39:52.075Z,80.13
2022-11-04T10:40:52.100Z,80.23
2022-11-04T10:41:52.072Z,81.41
2022-11-04T10:42:52.046Z,80.29
2022-11-04T10:43:52.040Z,80.23
2022-11-04T10:44:52.041Z,80.40
2022-11-04T10:45:52.020Z,79.68
2022-11-04T10:46:52.050Z,79.34
2022-11-04T10:47:52.014Z,79.75
2022-11-04T10:48:52.017Z,80.09
2022-11-04T10:50:21.861Z,81.01
2022-11-04T10:50:54.016Z,80.60
2022-11-04T10:51:52.015Z,78.66
2022-11-04T10:52:51.976Z,78.97
2022-11-04T10:53:51.966Z,78.43
2022-11-04T10:54:51.960Z,80.41
2022-11-04T10:55:52.015Z,81.26
2022-11-04T10:56:52.074Z,81.46
2022-11-04T10:57:51.934Z,81.84
2022-11-04T10:58:51.937Z,82.35
2022-11-04T10:59:51.926Z,82.21
2022-11-04T11:00:52.049Z,81.86
2022-11-04T11:01:52.201Z,80.88
2022-11-04T11:02:51.911Z,80.91
2022-11-04T11:03:51.888Z,81.23
2022-11-04T11:04:51.881Z,80.98
2022-11-04T11:05:51.882Z,81.29
2022-11-04T11:06:51.889Z,80.68
2022-11-04T11:07:51.863Z,81.18
2022-11-04T11:08:51.854Z,80.54
2022-11-04T11:09:54.012Z,79.52
2022-11-04T11:10:52.842Z,79.52
2022-11-04T11:11:51.852Z,78.50
2022-11-04T11:12:52.339Z,79.21
2022-11-04T11:13:51.818Z,78.77
2022-11-04T11:14:51.807Z,78.87
2022-11-04T11:15:51.809Z,79.07
2022-11-04T11:16:51.814Z,78.05
2022-11-04T11:17:51.783Z,78.16
2022-11-04T11:18:51.772Z,78.30
2022-11-04T11:19:51.780Z,78.30
2022-11-04T11:20:51.760Z,78.50
2022-11-04T11:21:51.774Z,78.26
2022-11-04T11:22:52.744Z,77.24
2022-11-04T11:23:51.742Z,76.73
2022-11-04T11:24:51.781Z,76.12
2022-11-04T11:25:51.731Z,76.97
2022-11-04T11:26:51.749Z,77.98
2022-11-04T11:27:51.698Z,79.11
2022-11-04T11:28:57.407Z,78.50
2022-11-04T11:29:53.692Z,76.97
2022-11-04T11:30:51.678Z,76.46
2022-11-04T11:31:51.675Z,76.66
2022-11-04T11:32:51.690Z,76.15
2022-11-04T11:33:51.659Z,77.44
2022-11-04T11:34:51.661Z,78.26
2022-11-04T11:35:51.638Z,77.44
2022-11-04T11:36:51.665Z,77.24
2022-11-04T11:37:51.635Z,78.26
2022-11-04T11:38:51.622Z,76.69
2022-11-04T11:39:51.609Z,76.08
2022-11-04T11:41:18.253Z,74.90
2022-11-04T11:41:53.760Z,75.20
2022-11-04T11:42:52.584Z,75.10
2022-11-04T11:43:51.589Z,75.85
2022-11-04T11:44:51.570Z,75.71
2022-11-04T11:45:51.564Z,76.56
2022-11-04T11:46:51.554Z,76.22
2022-11-04T11:47:51.580Z,75.85
2022-11-04T11:48:51.536Z,75.10
2022-11-04T11:49:51.532Z,74.58
2022-11-04T11:50:51.518Z,74.35
2022-11-04T11:51:51.544Z,74.49
2022-11-04T11:52:51.510Z,74.35
2022-11-04T11:53:51.492Z,74.49
2022-11-04T11:54:51.499Z,73.97
2022-11-04T11:55:51.483Z,73.67
2022-11-04T11:57:12.611Z,73.77
2022-11-04T12:00:59.055Z,74.55
2022-11-04T12:01:53.545Z,74.69
2022-11-04T12:02:51.498Z,74.99
2022-11-04T12:09:53.380Z,74.62
2022-11-04T12:10:52.441Z,73.91
2022-11-04T12:11:52.491Z,73.67
2022-11-04T12:12:51.369Z,73.67
2022-11-04T12:13:51.356Z,74.18
2022-11-04T12:14:51.334Z,73.77
2022-11-04T12:15:51.339Z,73.97
2022-11-04T12:16:51.312Z,73.36
2022-11-04T12:17:52.332Z,72.75
2022-11-04T12:18:51.299Z,73.63
2022-11-04T12:19:51.325Z,73.74
2022-11-04T12:20:51.290Z,74.18
2022-11-04T12:21:51.279Z,74.65
2022-11-04T12:22:51.301Z,74.45
2022-11-04T12:23:51.271Z,74.15
2022-11-04T12:24:51.255Z,73.94
2022-11-04T12:25:51.257Z,74.58
2022-11-04T12:26:51.237Z,73.97
2022-11-04T12:27:51.262Z,74.85
2022-11-04T12:28:51.218Z,74.96
2022-11-04T12:29:51.247Z,74.79
2022-11-04T12:30:51.246Z,74.28
2022-11-04T12:31:51.210Z,74.65
2022-11-04T12:32:51.231Z,74.79
2022-11-04T12:33:51.189Z,74.55
2022-11-04T12:34:51.189Z,74.58
2022-11-04T12:35:51.167Z,74.76
2022-11-04T12:36:51.169Z,74.48
2022-11-04T12:37:51.185Z,73.74
2022-11-04T12:38:51.158Z,73.77
2022-11-04T12:39:51.141Z,74.58
2022-11-04T12:41:18.069Z,73.97
2022-11-04T12:42:19.648Z,73.67
2022-11-04T12:42:53.175Z,74.01
2022-11-04T12:43:51.124Z,74.32
2022-11-04T12:44:51.104Z,74.90
2022-11-04T12:45:51.115Z,76.53
2022-11-04T12:46:51.110Z,77.03
2022-11-04T12:47:51.111Z,75.85
2022-11-04T12:48:56.029Z,77.07
2022-11-04T12:49:53.077Z,77.89
2022-11-04T12:50:51.083Z,79.04
2022-11-04T12:51:51.083Z,76.59
2022-11-04T12:52:51.095Z,78.16
2022-11-04T12:53:51.110Z,78.02
2022-11-04T12:54:51.037Z,78.43
2022-11-04T12:55:51.034Z,78.23
2022-11-04T12:56:51.033Z,78.23
2022-11-04T12:57:51.035Z,78.06
2022-11-04T12:58:51.004Z,78.33
2022-11-04T12:59:50.986Z,78.57
2022-11-04T13:00:51.051Z,78.27
2022-11-04T13:01:51.108Z,78.06